Terminal Aerodrome Forecast
Issued by NWS Sioux Falls, SD

Home | Current Version | Previous Version | Graphics & Text | Print | Product List | Glossary Off
Versions: 1 2 3 4 5 6 7 8 9 10 11 12 13

000
FTUS43 KFSD 281129
TAFFSD
TAF
KFSD 281129Z 2812/2912 36008KT P6SM BKN090
     FM281800 35011KT P6SM OVC050
     FM290100 36004KT P6SM SCT200=

USA.gov is the U.S. government's official web portal to all federal, state and local government web resources and services.